Time;durP1;ratioP1;P1;durP2;ratioP2;P2;SDS_P1;SDS_P2;PMS_P1;PMS_P2;Temp;Humidity;BMP_temperature;BMP_pressure;BME280_temperature;BME280_humidity;BME280_pressure;Samples;Min_cycle;Max_cycle;Signal;HPM_P1;HPM_P2
2024/01/24 00:00:05;;;;;;;2.58;2.38;;;6.50;63.80;;;;;;5094719;28;20067;-79
2024/01/24 00:02:31;;;;;;;2.38;2.17;;;6.50;63.80;;;;;;5076005;28;20051;-79
2024/01/24 00:04:56;;;;;;;2.50;2.30;;;6.50;63.80;;;;;;5078147;28;20059;-78
2024/01/24 00:07:22;;;;;;;2.50;2.30;;;6.50;63.90;;;;;;5098497;28;20024;-79
2024/01/24 00:09:48;;;;;;;2.20;2.10;;;6.50;63.80;;;;;;5100477;28;20367;-78
2024/01/24 00:12:14;;;;;;;2.40;2.20;;;6.50;63.80;;;;;;5100455;28;20046;-80
2024/01/24 00:14:39;;;;;;;2.28;2.17;;;6.50;63.80;;;;;;5099603;28;20028;-79
2024/01/24 00:17:05;;;;;;;2.60;2.40;;;6.50;63.80;;;;;;5081130;28;20476;-79
2024/01/24 00:19:31;;;;;;;2.50;2.30;;;6.50;63.80;;;;;;5079482;28;20043;-79
2024/01/24 00:21:57;;;;;;;2.50;2.30;;;6.50;63.80;;;;;;5097229;28;20024;-78
2024/01/24 00:24:23;;;;;;;2.60;2.40;;;6.50;63.80;;;;;;5078994;28;20035;-78
2024/01/24 00:26:49;;;;;;;2.20;2.10;;;6.50;63.80;;;;;;5097591;28;20027;-79
2024/01/24 00:29:14;;;;;;;2.20;2.10;;;6.50;63.80;;;;;;5097068;28;20035;-79
2024/01/24 00:31:41;;;;;;;2.40;2.20;;;6.50;63.80;;;;;;5078938;28;20044;-79
2024/01/24 00:34:06;;;;;;;2.88;2.22;;;6.50;63.80;;;;;;5097182;28;20415;-79
2024/01/24 00:36:32;;;;;;;2.20;2.10;;;6.50;63.80;;;;;;5096634;28;20020;-79
2024/01/24 00:38:58;;;;;;;2.30;2.10;;;6.50;63.80;;;;;;5078811;28;20028;-79
2024/01/24 00:41:24;;;;;;;2.35;2.20;;;6.50;63.90;;;;;;5078625;28;20028;-79
2024/01/24 00:43:49;;;;;;;2.33;2.17;;;6.50;63.90;;;;;;5096989;28;20442;-79
2024/01/24 00:46:15;;;;;;;2.42;2.22;;;6.50;63.80;;;;;;5097128;28;20103;-79
2024/01/24 00:48:41;;;;;;;2.63;2.42;;;6.50;63.90;;;;;;5078770;28;20028;-79
2024/01/24 00:51:07;;;;;;;2.35;2.20;;;6.50;63.80;;;;;;5078368;28;20381;-79
2024/01/24 00:53:36;;;;;;;2.28;2.15;;;6.50;63.80;;;;;;5078504;28;20366;-78
2024/01/24 00:56:03;;;;;;;2.40;2.20;;;6.50;63.90;;;;;;5078418;28;20051;-79
2024/01/24 00:58:29;;;;;;;2.50;2.30;;;6.50;63.80;;;;;;5077809;28;20024;-79
2024/01/24 01:00:55;;;;;;;2.60;2.30;;;6.50;63.90;;;;;;5078370;28;20020;-78
2024/01/24 01:03:21;;;;;;;2.40;2.20;;;6.50;63.80;;;;;;5078398;28;20362;-79
2024/01/24 01:05:47;;;;;;;2.25;2.10;;;6.50;64.10;;;;;;5096175;28;20492;-79
2024/01/24 01:08:13;;;;;;;2.67;2.42;;;6.50;63.90;;;;;;5079015;28;20020;-79
2024/01/24 01:10:39;;;;;;;2.60;2.40;;;6.50;63.90;;;;;;5078662;28;20066;-78
2024/01/24 01:13:04;;;;;;;2.60;2.40;;;6.50;63.90;;;;;;5096408;28;20346;-78
2024/01/24 01:15:30;;;;;;;2.60;2.40;;;6.50;63.90;;;;;;5078232;28;20028;-79
2024/01/24 01:17:56;;;;;;;2.38;2.17;;;6.50;63.90;;;;;;5096476;28;20389;-79
2024/01/24 01:20:22;;;;;;;2.35;2.15;;;6.50;63.90;;;;;;5078073;28;20024;-79
2024/01/24 01:22:48;;;;;;;2.40;2.20;;;6.50;63.90;;;;;;5097016;28;20027;-80
2024/01/24 01:25:14;;;;;;;2.53;2.33;;;6.50;63.90;;;;;;5083222;28;20036;-79
2024/01/24 01:27:40;;;;;;;2.58;2.38;;;6.50;63.90;;;;;;5099589;28;20465;-78
2024/01/24 01:30:07;;;;;;;2.42;2.22;;;6.50;63.90;;;;;;5101633;28;20023;-79
2024/01/24 01:32:33;;;;;;;2.10;2.00;;;6.60;63.90;;;;;;5101144;28;20033;-79
2024/01/24 01:34:59;;;;;;;2.78;2.50;;;6.50;63.90;;;;;;5084674;28;20028;-79
2024/01/24 01:37:26;;;;;;;2.65;2.45;;;6.50;63.90;;;;;;5083778;28;20095;-81
2024/01/24 01:39:52;;;;;;;2.50;2.30;;;6.50;63.90;;;;;;5082587;28;20028;-79
2024/01/24 01:42:18;;;;;;;2.47;2.30;;;6.50;63.90;;;;;;5099423;28;20024;-79
2024/01/24 01:44:48;;;;;;;2.53;2.30;;;6.50;64.50;;;;;;5079777;28;20028;-79
2024/01/24 01:47:15;;;;;;;2.55;2.35;;;6.60;63.90;;;;;;5078540;28;20505;-78
2024/01/24 01:49:43;;;;;;;2.20;2.10;;;6.50;63.90;;;;;;5077599;28;20023;-79
2024/01/24 01:52:09;;;;;;;2.60;2.40;;;6.50;63.90;;;;;;5095393;28;20020;-79
2024/01/24 01:54:36;;;;;;;2.50;2.30;;;6.50;63.90;;;;;;5077232;28;20378;-78
2024/01/24 01:57:04;;;;;;;2.53;2.33;;;6.50;63.90;;;;;;5077398;28;20031;-79
2024/01/24 01:59:31;;;;;;;3.00;2.67;;;6.50;63.90;;;;;;5096231;28;20430;-79
2024/01/24 02:02:00;;;;;;;2.60;2.40;;;6.50;63.90;;;;;;5095543;28;20023;-78
2024/01/24 02:04:26;;;;;;;2.35;2.15;;;6.50;64.50;;;;;;5077149;28;20028;-79
2024/01/24 02:06:53;;;;;;;2.85;2.55;;;6.50;63.90;;;;;;5076780;28;20030;-79
2024/01/24 02:09:18;;;;;;;2.50;2.30;;;6.50;63.90;;;;;;5077009;28;20024;-78
2024/01/24 02:11:44;;;;;;;2.60;2.40;;;6.50;63.90;;;;;;5076998;28;20020;-79
2024/01/24 02:14:12;;;;;;;2.38;2.17;;;6.50;63.90;;;;;;5076820;28;20035;-77
2024/01/24 02:16:38;;;;;;;2.70;2.50;;;6.50;64.00;;;;;;5076822;28;20024;-79
2024/01/24 02:19:04;;;;;;;2.50;2.30;;;6.50;63.90;;;;;;5060020;28;20031;-79
2024/01/24 02:21:30;;;;;;;2.67;2.47;;;6.50;63.90;;;;;;5076657;28;20020;-79
2024/01/24 02:23:58;;;;;;;2.10;2.00;;;6.60;64.00;;;;;;5076515;28;20123;-78
2024/01/24 02:26:24;;;;;;;2.63;2.42;;;6.50;64.00;;;;;;5076246;28;20054;-79
2024/01/24 02:28:50;;;;;;;2.75;2.55;;;6.50;63.90;;;;;;5093790;28;20462;-79
2024/01/24 02:31:16;;;;;;;2.60;2.40;;;6.50;63.90;;;;;;5076671;28;20442;-80
2024/01/24 02:33:41;;;;;;;2.63;2.42;;;6.50;63.90;;;;;;5094772;28;20020;-79
2024/01/24 02:36:08;;;;;;;2.50;2.30;;;6.50;63.90;;;;;;5094681;28;20028;-79
2024/01/24 02:38:34;;;;;;;2.40;2.20;;;6.50;63.90;;;;;;5076319;28;20094;-78
2024/01/24 02:41:00;;;;;;;2.42;2.22;;;6.50;63.90;;;;;;5094311;28;20038;-79
2024/01/24 02:43:26;;;;;;;2.35;2.20;;;6.50;63.90;;;;;;5076453;28;20069;-79
2024/01/24 02:45:52;;;;;;;2.65;2.45;;;6.50;63.90;;;;;;5076294;28;20027;-78
2024/01/24 02:48:17;;;;;;;2.50;2.30;;;6.50;63.90;;;;;;5094304;28;20039;-80
2024/01/24 02:50:43;;;;;;;2.35;2.20;;;6.50;63.90;;;;;;5076382;28;20462;-79
2024/01/24 02:53:09;;;;;;;2.53;2.33;;;6.60;64.00;;;;;;5076719;28;20017;-78
2024/01/24 02:55:35;;;;;;;2.45;2.28;;;6.60;64.00;;;;;;5076006;28;20097;-79
2024/01/24 02:58:00;;;;;;;2.42;2.22;;;6.50;64.00;;;;;;5076145;28;20020;-78
2024/01/24 03:00:28;;;;;;;2.92;2.67;;;6.60;64.00;;;;;;5076168;28;20022;-80
2024/01/24 03:02:54;;;;;;;2.58;2.38;;;6.60;64.20;;;;;;5076688;28;20020;-78
2024/01/24 03:05:20;;;;;;;2.92;2.70;;;6.60;64.00;;;;;;5075934;28;20374;-78
2024/01/24 03:07:47;;;;;;;2.53;2.33;;;6.50;63.90;;;;;;5094679;28;20027;-77
2024/01/24 03:10:13;;;;;;;2.72;2.53;;;6.50;63.90;;;;;;5098022;28;20099;-79
2024/01/24 03:12:38;;;;;;;2.67;2.47;;;6.50;63.90;;;;;;5081335;28;20101;-79
2024/01/24 03:15:05;;;;;;;2.65;2.45;;;6.60;64.00;;;;;;5084732;28;20077;-79
2024/01/24 03:17:32;;;;;;;2.50;2.30;;;6.50;63.90;;;;;;5099285;28;20031;-78
2024/01/24 03:19:58;;;;;;;2.80;2.50;;;6.60;64.00;;;;;;5084359;28;20027;-80
2024/01/24 03:22:25;;;;;;;2.63;2.42;;;6.50;64.00;;;;;;5079555;28;20024;-80
2024/01/24 03:24:52;;;;;;;2.97;2.70;;;6.60;64.00;;;;;;5076665;28;20032;-78
2024/01/24 03:27:17;;;;;;;2.67;2.47;;;6.60;64.00;;;;;;5076217;28;20085;-80
2024/01/24 03:29:44;;;;;;;2.70;2.50;;;6.50;64.00;;;;;;5076406;28;20020;-78
2024/01/24 03:32:10;;;;;;;2.42;2.25;;;6.50;64.00;;;;;;5076135;28;20020;-79
2024/01/24 03:34:35;;;;;;;2.65;2.45;;;6.60;64.00;;;;;;5075881;28;20028;-78
2024/01/24 03:37:01;;;;;;;2.80;2.50;;;6.60;64.00;;;;;;5076121;28;20054;-79
2024/01/24 03:39:28;;;;;;;2.53;2.33;;;6.60;64.00;;;;;;5077579;28;20020;-78
2024/01/24 03:41:54;;;;;;;2.90;2.70;;;6.60;64.00;;;;;;5079847;28;20031;-79
2024/01/24 03:44:20;;;;;;;3.08;2.78;;;6.60;64.00;;;;;;5080433;28;20028;-79
2024/01/24 03:46:46;;;;;;;3.20;2.50;;;6.60;64.00;;;;;;5087491;28;20449;-78
2024/01/24 03:49:11;;;;;;;2.50;2.30;;;6.60;64.00;;;;;;5091547;28;20384;-79
2024/01/24 03:51:37;;;;;;;2.75;2.55;;;6.60;64.00;;;;;;5107603;28;20024;-80
2024/01/24 03:54:03;;;;;;;2.78;2.58;;;6.60;64.00;;;;;;5086940;28;20020;-79
2024/01/24 03:56:29;;;;;;;2.50;2.30;;;6.60;64.00;;;;;;5080855;28;20020;-79
2024/01/24 03:58:54;;;;;;;2.85;2.60;;;6.60;64.00;;;;;;5079758;28;20024;-79
2024/01/24 04:01:20;;;;;;;3.05;2.70;;;6.60;64.00;;;;;;5098785;28;20016;-79
2024/01/24 04:03:47;;;;;;;3.03;2.58;;;6.60;64.00;;;;;;5081461;28;20423;-78
2024/01/24 04:06:13;;;;;;;3.00;2.70;;;6.60;64.00;;;;;;5080611;28;20079;-79
2024/01/24 04:08:39;;;;;;;2.85;2.65;;;6.60;64.00;;;;;;5098071;28;20445;-79
2024/01/24 04:11:05;;;;;;;2.60;2.40;;;6.60;64.10;;;;;;5097266;28;20027;-79
2024/01/24 04:13:30;;;;;;;2.60;2.40;;;6.60;64.00;;;;;;5080222;28;20056;-79
2024/01/24 04:15:56;;;;;;;2.50;2.30;;;6.60;64.00;;;;;;5079986;28;20077;-79
2024/01/24 04:18:22;;;;;;;2.60;2.40;;;6.60;64.00;;;;;;5079243;28;20517;-78
2024/01/24 04:20:48;;;;;;;3.25;2.95;;;6.60;64.10;;;;;;5079124;28;20081;-79
2024/01/24 04:23:13;;;;;;;2.78;2.58;;;6.60;64.00;;;;;;5097637;28;20027;-79
2024/01/24 04:25:39;;;;;;;3.03;2.72;;;6.60;64.00;;;;;;5078869;28;20036;-78
2024/01/24 04:28:05;;;;;;;2.67;2.47;;;6.50;64.00;;;;;;5078620;28;20032;-79
2024/01/24 04:30:31;;;;;;;2.60;2.40;;;6.60;64.10;;;;;;5078443;28;20024;-78
2024/01/24 04:32:56;;;;;;;2.95;2.67;;;6.60;64.10;;;;;;5078470;28;20093;-78
2024/01/24 04:35:22;;;;;;;2.80;2.60;;;6.60;64.00;;;;;;5078962;28;20165;-79
2024/01/24 04:37:49;;;;;;;3.38;2.70;;;6.60;64.10;;;;;;5078773;28;20016;-79
2024/01/24 04:40:15;;;;;;;3.03;2.70;;;6.60;64.10;;;;;;5078454;28;20020;-78
2024/01/24 04:42:40;;;;;;;2.78;2.58;;;6.60;64.10;;;;;;5078716;28;20042;-79
2024/01/24 04:45:06;;;;;;;3.22;2.92;;;6.60;64.10;;;;;;5078244;28;20525;-78
2024/01/24 04:47:32;;;;;;;3.08;2.78;;;6.60;64.10;;;;;;5078881;28;20035;-79
2024/01/24 04:49:58;;;;;;;3.35;3.05;;;6.60;64.10;;;;;;5096663;28;20381;-78
2024/01/24 04:52:24;;;;;;;2.72;2.53;;;6.60;64.10;;;;;;5078086;28;20073;-77
2024/01/24 04:54:51;;;;;;;3.10;2.80;;;6.60;64.10;;;;;;5061569;28;20043;-79
2024/01/24 04:57:17;;;;;;;3.22;2.80;;;6.60;64.10;;;;;;5104774;28;20077;-78
2024/01/24 04:59:42;;;;;;;3.08;2.65;;;6.60;64.10;;;;;;5105431;28;20016;-77
2024/01/24 05:02:08;;;;;;;3.05;2.75;;;6.60;64.10;;;;;;5101644;28;20020;-78
2024/01/24 05:04:34;;;;;;;2.80;2.50;;;6.60;64.10;;;;;;5084846;28;20053;-78
2024/01/24 05:07:00;;;;;;;2.55;2.35;;;6.60;64.10;;;;;;5084406;28;20024;-77
2024/01/24 05:09:25;;;;;;;3.17;2.88;;;6.60;64.20;;;;;;5100171;28;20024;-79
2024/01/24 05:11:51;;;;;;;3.22;2.92;;;6.60;64.10;;;;;;5097261;28;20145;-78
2024/01/24 05:14:17;;;;;;;3.17;2.88;;;6.60;64.10;;;;;;5078097;28;20093;-78
2024/01/24 05:16:43;;;;;;;3.53;2.97;;;6.60;64.10;;;;;;5096074;28;20442;-78
2024/01/24 05:19:09;;;;;;;3.20;2.75;;;6.60;64.10;;;;;;5078038;28;20411;-80
2024/01/24 05:21:41;;;;;;;3.50;3.20;;;6.60;64.00;;;;;;5078598;28;20442;-79
2024/01/24 05:24:08;;;;;;;3.35;3.05;;;6.60;64.10;;;;;;5078106;28;20073;-74
2024/01/24 05:26:35;;;;;;;3.15;2.85;;;6.60;64.10;;;;;;5096469;28;20081;-74
2024/01/24 05:29:02;;;;;;;3.25;2.95;;;6.60;64.20;;;;;;5078019;28;20039;-79
2024/01/24 05:31:28;;;;;;;3.10;2.72;;;6.60;64.10;;;;;;5096196;28;20016;-77
2024/01/24 05:33:55;;;;;;;2.90;2.70;;;6.60;64.10;;;;;;5061281;28;20026;-80
2024/01/24 05:36:21;;;;;;;3.55;3.15;;;6.60;64.20;;;;;;5078308;28;20026;-75
2024/01/24 05:38:47;;;;;;;4.10;3.50;;;6.60;64.10;;;;;;5096341;28;20027;-78
2024/01/24 05:41:13;;;;;;;3.53;3.22;;;6.60;64.20;;;;;;5077884;28;20027;-79
2024/01/24 05:43:39;;;;;;;3.10;2.80;;;6.60;64.10;;;;;;5077704;28;20020;-81
2024/01/24 05:46:05;;;;;;;5.00;2.90;;;6.60;64.20;;;;;;5077710;28;20028;-79
2024/01/24 05:48:31;;;;;;;3.10;2.80;;;6.60;64.10;;;;;;5077456;28;20023;-81
2024/01/24 05:50:56;;;;;;;3.03;2.72;;;6.60;64.20;;;;;;5077414;28;20353;-81
2024/01/24 05:53:23;;;;;;;3.67;3.17;;;6.60;64.20;;;;;;5060776;28;20020;-80
2024/01/24 05:55:48;;;;;;;3.30;3.00;;;6.60;64.10;;;;;;5077443;28;20424;-81
2024/01/24 05:58:14;;;;;;;3.28;2.83;;;6.60;64.20;;;;;;5077319;28;20024;-81
2024/01/24 06:00:40;;;;;;;3.47;2.72;;;6.60;64.20;;;;;;5077231;28;20354;-81
2024/01/24 06:03:07;;;;;;;3.20;2.90;;;6.60;64.20;;;;;;5077649;28;20031;-80
2024/01/24 06:05:33;;;;;;;3.25;2.92;;;6.60;64.20;;;;;;5078051;28;20032;-81
2024/01/24 06:07:59;;;;;;;3.78;3.00;;;6.60;64.10;;;;;;5077528;28;20550;-82
2024/01/24 06:10:26;;;;;;;3.25;2.83;;;6.60;64.10;;;;;;5060846;28;20044;-81
2024/01/24 06:12:52;;;;;;;4.00;3.03;;;6.70;64.20;;;;;;5077147;28;20027;-80
2024/01/24 06:15:18;;;;;;;2.60;2.40;;;6.60;64.20;;;;;;5076949;28;20030;-80
2024/01/24 06:17:44;;;;;;;3.10;2.80;;;6.60;64.10;;;;;;5095309;28;20023;-82
2024/01/24 06:20:11;;;;;;;3.13;2.83;;;6.70;64.10;;;;;;5077500;28;20020;-81
2024/01/24 06:22:37;;;;;;;3.28;2.97;;;6.70;64.20;;;;;;5077086;28;20016;-80
2024/01/24 06:25:07;;;;;;;2.97;2.67;;;6.70;64.10;;;;;;5076641;28;20036;-81
2024/01/24 06:27:36;;;;;;;3.38;3.08;;;6.70;64.10;;;;;;5095289;28;20024;-81
2024/01/24 06:30:02;;;;;;;3.63;3.10;;;6.70;64.10;;;;;;5076865;28;20059;-81
2024/01/24 06:32:28;;;;;;;3.08;2.67;;;6.70;64.10;;;;;;5076632;28;20016;-81
2024/01/24 06:34:53;;;;;;;3.38;2.72;;;6.70;64.10;;;;;;5076713;28;20458;-82
2024/01/24 06:37:19;;;;;;;4.07;3.08;;;6.70;64.10;;;;;;5076606;28;20031;-79
2024/01/24 06:39:46;;;;;;;2.85;2.60;;;6.70;64.10;;;;;;5076551;28;20028;-81
2024/01/24 06:42:12;;;;;;;3.63;2.90;;;6.70;64.20;;;;;;5081211;28;20016;-80
2024/01/24 06:44:38;;;;;;;3.03;2.70;;;6.70;64.10;;;;;;5102720;28;20567;-81
2024/01/24 06:47:04;;;;;;;3.28;2.95;;;6.80;64.20;;;;;;5085011;28;20442;-81
2024/01/24 06:49:30;;;;;;;3.38;2.95;;;6.80;64.10;;;;;;5084329;28;20119;-81
2024/01/24 06:51:56;;;;;;;3.30;3.00;;;6.80;64.10;;;;;;5102584;28;20020;-80
2024/01/24 06:54:21;;;;;;;3.53;2.90;;;6.80;64.10;;;;;;5102157;28;20055;-79
2024/01/24 06:56:47;;;;;;;3.40;3.00;;;6.80;64.10;;;;;;5079878;28;20027;-82
2024/01/24 06:59:13;;;;;;;3.53;2.92;;;6.80;64.10;;;;;;5081803;28;20362;-75
2024/01/24 07:01:40;;;;;;;4.43;3.38;;;6.80;64.10;;;;;;5081994;28;20044;-83
2024/01/24 07:04:06;;;;;;;3.28;2.97;;;6.90;64.20;;;;;;5094621;28;20027;-79
2024/01/24 07:06:31;;;;;;;2.92;2.65;;;6.90;64.70;;;;;;5094815;28;20024;-75
2024/01/24 07:08:57;;;;;;;3.33;2.67;;;6.90;64.00;;;;;;5076093;28;20439;-75
2024/01/24 07:11:23;;;;;;;2.80;2.60;;;6.90;64.10;;;;;;5094219;28;20073;-76
2024/01/24 07:13:49;;;;;;;3.10;2.80;;;6.90;64.00;;;;;;5075565;28;20024;-77
2024/01/24 07:16:15;;;;;;;3.78;2.88;;;6.90;64.00;;;;;;5079288;28;20062;-77
2024/01/24 07:18:40;;;;;;;2.78;2.58;;;6.90;64.00;;;;;;5077227;28;20016;-75
2024/01/24 07:21:07;;;;;;;3.05;2.72;;;7.00;64.00;;;;;;5076054;28;20030;-77
2024/01/24 07:23:33;;;;;;;3.10;2.80;;;6.90;64.00;;;;;;5075883;28;20016;-74
2024/01/24 07:25:59;;;;;;;2.92;2.63;;;7.00;64.00;;;;;;5075896;28;20039;-75
2024/01/24 07:28:29;;;;;;;3.25;2.95;;;7.00;64.00;;;;;;5093939;28;20032;-76
2024/01/24 07:30:55;;;;;;;3.63;3.20;;;7.00;64.00;;;;;;5094275;28;20076;-76
2024/01/24 07:33:20;;;;;;;3.08;2.78;;;7.00;64.00;;;;;;5075807;28;20023;-78
2024/01/24 07:35:46;;;;;;;3.33;3.03;;;7.00;64.00;;;;;;5075714;28;20395;-76
2024/01/24 07:38:12;;;;;;;3.45;3.10;;;7.00;64.00;;;;;;5075787;28;20032;-77
2024/01/24 07:40:38;;;;;;;3.08;2.75;;;7.00;64.00;;;;;;5075797;28;20107;-76
2024/01/24 07:43:04;;;;;;;3.85;3.45;;;7.00;64.00;;;;;;5075946;28;20016;-76
2024/01/24 07:45:30;;;;;;;3.90;2.88;;;7.10;64.00;;;;;;5076518;28;20051;-76
2024/01/24 07:47:56;;;;;;;3.17;2.88;;;7.10;64.00;;;;;;5075546;28;20543;-78
2024/01/24 07:50:22;;;;;;;2.70;2.50;;;7.10;63.90;;;;;;5075647;28;20020;-74
2024/01/24 07:52:47;;;;;;;3.20;2.90;;;7.10;63.90;;;;;;5075716;28;20078;-84
2024/01/24 07:55:13;;;;;;;2.70;2.50;;;7.10;63.90;;;;;;5075491;28;20043;-76
2024/01/24 07:57:40;;;;;;;3.17;2.88;;;7.20;63.90;;;;;;5094044;28;20020;-77
2024/01/24 08:00:06;;;;;;;3.30;3.00;;;7.20;63.90;;;;;;5075743;28;20028;-76
2024/01/24 08:02:32;;;;;;;3.67;2.90;;;7.20;63.90;;;;;;5075660;28;20020;-75
2024/01/24 08:04:58;;;;;;;3.53;3.03;;;7.10;64.00;;;;;;5093574;28;20027;-79
2024/01/24 08:07:25;;;;;;;3.08;2.78;;;7.20;64.20;;;;;;5094225;28;20433;-75
2024/01/24 08:09:50;;;;;;;3.40;2.97;;;7.30;64.50;;;;;;5093656;28;20069;-80
2024/01/24 08:12:16;;;;;;;4.03;3.20;;;7.30;64.60;;;;;;5077261;28;20020;-76
2024/01/24 08:14:42;;;;;;;3.95;3.30;;;7.40;64.60;;;;;;5078606;28;20023;-76
2024/01/24 08:17:10;;;;;;;3.67;3.17;;;7.40;64.60;;;;;;5094316;28;20023;-77
2024/01/24 08:19:38;;;;;;;3.40;3.10;;;7.40;64.60;;;;;;5093731;28;20361;-78
2024/01/24 08:22:04;;;;;;;3.22;2.92;;;7.50;64.60;;;;;;5093127;28;20099;-78
2024/01/24 08:24:30;;;;;;;4.47;3.40;;;7.50;64.60;;;;;;5093528;28;20115;-77
2024/01/24 08:26:56;;;;;;;4.22;3.22;;;7.60;64.60;;;;;;5100961;28;20473;-78
2024/01/24 08:29:25;;;;;;;3.58;3.10;;;7.60;64.50;;;;;;5102338;28;20020;-79
2024/01/24 08:31:51;;;;;;;3.33;3.00;;;7.70;64.40;;;;;;5102902;28;20016;-79
2024/01/24 08:34:17;;;;;;;3.22;2.88;;;7.70;64.30;;;;;;5100547;28;20472;-78
2024/01/24 08:36:43;;;;;;;3.38;2.72;;;7.70;64.20;;;;;;5085651;28;20020;-78
2024/01/24 08:39:10;;;;;;;3.60;2.90;;;7.70;64.20;;;;;;5099003;28;20107;-78
2024/01/24 08:41:36;;;;;;;3.65;2.95;;;7.80;64.20;;;;;;5063058;28;20080;-77
2024/01/24 08:44:02;;;;;;;3.63;3.08;;;7.80;64.20;;;;;;5096890;28;20374;-78
2024/01/24 08:46:28;;;;;;;3.72;3.00;;;7.80;64.20;;;;;;5097063;28;20031;-79
2024/01/24 08:48:54;;;;;;;3.15;2.72;;;7.90;64.20;;;;;;5097666;28;20046;-79
2024/01/24 08:51:22;;;;;;;4.22;2.83;;;8.00;64.10;;;;;;5079208;28;20457;-78
2024/01/24 08:53:47;;;;;;;3.58;3.05;;;8.00;64.10;;;;;;5079368;28;20379;-77
2024/01/24 08:56:14;;;;;;;3.33;2.75;;;8.10;64.00;;;;;;5097249;28;20019;-79
2024/01/24 08:58:39;;;;;;;4.60;3.28;;;8.10;64.00;;;;;;5096299;28;20028;-79
2024/01/24 09:01:06;;;;;;;3.55;2.83;;;8.10;63.90;;;;;;5078396;28;20024;-78
2024/01/24 09:03:32;;;;;;;3.83;2.97;;;8.20;63.90;;;;;;5096152;28;20022;-79
2024/01/24 09:05:58;;;;;;;3.80;3.03;;;8.20;63.80;;;;;;5096624;28;20357;-79
2024/01/24 09:08:25;;;;;;;2.80;2.50;;;8.20;63.80;;;;;;5078830;28;20123;-78
2024/01/24 09:10:51;;;;;;;2.88;2.67;;;8.20;63.80;;;;;;5078280;28;20028;-80
2024/01/24 09:13:21;;;;;;;3.53;3.08;;;8.30;63.80;;;;;;5096338;28;20335;-78
2024/01/24 09:15:47;;;;;;;4.30;3.33;;;8.30;63.70;;;;;;5096218;28;20036;-78
2024/01/24 09:18:14;;;;;;;3.35;3.03;;;8.30;63.60;;;;;;5096764;28;20098;-79
2024/01/24 09:20:40;;;;;;;3.67;2.90;;;8.30;63.60;;;;;;5095796;28;20085;-79
2024/01/24 09:23:06;;;;;;;3.28;2.80;;;8.30;63.60;;;;;;5096167;28;20020;-78
2024/01/24 09:25:32;;;;;;;3.15;2.80;;;8.30;63.50;;;;;;5078152;28;20040;-79
2024/01/24 09:27:58;;;;;;;3.45;2.95;;;8.30;63.50;;;;;;5102247;28;20044;-77
2024/01/24 09:30:23;;;;;;;4.55;3.00;;;8.30;63.50;;;;;;5079945;28;20075;-79
2024/01/24 09:32:49;;;;;;;2.88;2.63;;;8.30;63.50;;;;;;5096113;28;20073;-76
2024/01/24 09:35:15;;;;;;;3.20;2.83;;;8.30;63.50;;;;;;5065313;28;20454;-78
2024/01/24 09:37:41;;;;;;;3.53;3.13;;;8.30;63.50;;;;;;5057746;28;20142;-78
2024/01/24 09:40:08;;;;;;;3.25;2.75;;;8.30;63.50;;;;;;5075193;28;20511;-83
2024/01/24 09:42:41;;;;;;;3.22;2.92;;;8.30;63.50;;;;;;5076580;28;20016;-88
2024/01/24 09:45:08;;;;;;;4.22;3.08;;;8.30;63.50;;;;;;5058215;28;20021;-86
2024/01/24 09:47:35;;;;;;;4.97;2.90;;;8.30;63.50;;;;;;5057961;28;20137;-85
2024/01/24 09:50:05;;;;;;;3.13;2.75;;;8.30;63.50;;;;;;5057972;28;20028;-84
2024/01/24 09:52:35;;;;;;;3.70;2.90;;;8.30;63.50;;;;;;5075746;28;20043;-84
2024/01/24 09:55:04;;;;;;;3.78;3.00;;;8.30;63.50;;;;;;5075427;28;20098;-84
2024/01/24 09:57:31;;;;;;;3.60;3.10;;;8.30;63.50;;;;;;5058168;28;20021;-86
2024/01/24 09:59:57;;;;;;;3.80;2.90;;;8.20;63.40;;;;;;5076106;28;20012;-87
2024/01/24 10:02:27;;;;;;;3.20;2.90;;;8.20;63.40;;;;;;5075934;28;20036;-84
2024/01/24 10:04:54;;;;;;;3.50;2.72;;;8.30;63.50;;;;;;5057410;28;20115;-86
2024/01/24 10:07:20;;;;;;;3.80;2.80;;;8.30;63.40;;;;;;5058394;28;20455;-86
2024/01/24 10:10:00;;;;;;;4.10;3.20;;;8.30;63.40;;;;;;5067952;28;20020;-84
2024/01/24 10:12:26;;;;;;;3.45;2.80;;;8.20;63.40;;;;;;5073146;28;20510;-84
2024/01/24 10:14:51;;;;;;;4.10;3.30;;;8.30;63.40;;;;;;5061716;28;20035;-86
2024/01/24 10:17:18;;;;;;;3.70;3.13;;;8.30;63.40;;;;;;5080219;28;20020;-86
2024/01/24 10:19:43;;;;;;;3.00;2.70;;;8.30;64.00;;;;;;5067605;28;20051;-85
2024/01/24 10:22:10;;;;;;;3.45;3.10;;;8.30;63.40;;;;;;5066242;28;20027;-85
2024/01/24 10:24:36;;;;;;;3.38;3.00;;;8.20;63.30;;;;;;5060249;28;20096;-85
2024/01/24 10:27:02;;;;;;;4.07;3.20;;;8.30;63.40;;;;;;5076633;28;20059;-85
2024/01/24 10:29:29;;;;;;;3.22;2.92;;;8.30;63.40;;;;;;5057770;28;20020;-85
2024/01/24 10:31:58;;;;;;;3.80;2.80;;;8.30;63.40;;;;;;5058061;28;20024;-84
2024/01/24 10:34:28;;;;;;;3.20;2.78;;;8.30;63.40;;;;;;5076666;28;20027;-85
2024/01/24 10:36:54;;;;;;;4.25;3.28;;;8.30;63.40;;;;;;5057515;28;20017;-85
2024/01/24 10:39:22;;;;;;;3.75;3.13;;;8.20;63.40;;;;;;5075705;28;20130;-87
2024/01/24 10:41:53;;;;;;;3.53;2.97;;;8.30;63.40;;;;;;5058017;28;20031;-86
2024/01/24 10:44:25;;;;;;;3.42;2.78;;;8.30;63.40;;;;;;5075971;28;20343;-85
2024/01/24 10:46:55;;;;;;;3.70;2.88;;;8.30;63.40;;;;;;5057730;28;20096;-87
2024/01/24 10:49:24;;;;;;;3.28;2.90;;;8.20;63.30;;;;;;5074999;28;20020;-86
2024/01/24 10:51:50;;;;;;;3.90;3.40;;;8.20;63.30;;;;;;5074802;28;20017;-88
2024/01/24 10:54:17;;;;;;;3.72;3.00;;;8.20;63.30;;;;;;5075797;28;20111;-83
2024/01/24 10:56:49;;;;;;;3.25;2.90;;;8.20;63.30;;;;;;5077677;28;20069;-82
2024/01/24 10:59:17;;;;;;;3.40;3.10;;;8.20;63.30;;;;;;5078463;28;20119;-82
2024/01/24 11:01:44;;;;;;;3.75;3.20;;;8.20;63.30;;;;;;5097036;28;20493;-88
2024/01/24 11:04:12;;;;;;;4.78;3.35;;;8.20;63.40;;;;;;5097572;28;20013;-80
2024/01/24 11:06:58;;;;;;;3.95;3.28;;;8.10;63.30;;;;;;5075875;28;20019;-86
2024/01/24 11:09:53;;;;;;;4.00;3.05;;;8.10;63.30;;;;;;5065517;28;20063;-86
2024/01/24 11:12:22;;;;;;;3.92;3.30;;;8.10;63.40;;;;;;5094550;28;20065;-85
2024/01/24 11:14:48;;;;;;;3.67;3.10;;;8.10;63.40;;;;;;5095185;28;20112;-85
2024/01/24 11:17:14;;;;;;;3.35;3.05;;;8.10;63.40;;;;;;5077320;28;20016;-83
2024/01/24 11:19:40;;;;;;;3.17;2.88;;;8.00;63.40;;;;;;5110892;28;20304;-80
2024/01/24 11:22:10;;;;;;;3.30;3.00;;;8.00;63.40;;;;;;5094189;28;20035;-78
2024/01/24 11:24:43;;;;;;;3.60;3.00;;;8.00;63.50;;;;;;5077102;28;20028;-82
2024/01/24 11:27:27;;;;;;;3.30;2.92;;;8.00;63.50;;;;;;5075380;28;20073;-81
2024/01/24 11:29:57;;;;;;;3.37;2.97;;;8.00;63.50;;;;;;5094558;28;20029;-83
2024/01/24 11:32:47;;;;;;;3.40;3.00;;;8.00;63.50;;;;;;5076655;28;20111;-78
2024/01/24 11:35:35;;;;;;;3.28;2.97;;;8.00;63.50;;;;;;5075710;28;20526;-79
2024/01/24 11:38:06;;;;;;;3.38;3.08;;;8.00;63.50;;;;;;5094342;28;20028;-78
2024/01/24 11:40:37;;;;;;;3.40;3.08;;;8.00;63.50;;;;;;5094069;28;20020;-78
2024/01/24 11:43:05;;;;;;;3.60;3.25;;;8.00;63.50;;;;;;5099303;28;20389;-83
2024/01/24 11:45:31;;;;;;;3.75;3.30;;;8.00;63.50;;;;;;5083584;28;20024;-90
2024/01/24 11:47:57;;;;;;;3.42;3.10;;;8.00;63.60;;;;;;5076109;28;20036;-85
2024/01/24 11:50:24;;;;;;;3.30;3.00;;;8.00;63.60;;;;;;5097614;28;20453;-84
2024/01/24 11:52:50;;;;;;;3.97;3.00;;;8.00;63.60;;;;;;5086072;28;20120;-81
2024/01/24 11:55:16;;;;;;;3.42;3.13;;;7.90;63.50;;;;;;5083849;28;20048;-83
2024/01/24 11:57:42;;;;;;;3.10;2.70;;;7.90;63.60;;;;;;5081330;28;20088;-85
2024/01/24 12:00:09;;;;;;;3.47;3.10;;;7.90;63.60;;;;;;5084402;28;20020;-89
2024/01/24 12:02:35;;;;;;;3.15;2.85;;;7.90;63.60;;;;;;5088289;28;20020;-84
2024/01/24 12:05:01;;;;;;;3.75;3.10;;;7.90;63.60;;;;;;5084761;28;20123;-86
2024/01/24 12:07:27;;;;;;;3.80;3.20;;;7.90;63.60;;;;;;5087457;28;20020;-87
2024/01/24 12:09:54;;;;;;;3.53;3.00;;;7.90;63.60;;;;;;5091613;28;20036;-90
2024/01/24 12:12:20;;;;;;;3.45;3.15;;;7.90;63.60;;;;;;5089669;28;20016;-91
2024/01/24 12:14:46;;;;;;;3.30;3.00;;;7.90;63.70;;;;;;5082932;28;20024;-80
2024/01/24 12:17:12;;;;;;;3.33;3.00;;;7.90;64.20;;;;;;5079354;28;20439;-85
2024/01/24 12:19:44;;;;;;;3.70;3.30;;;8.00;63.70;;;;;;5079070;28;20020;-83
2024/01/24 12:22:12;;;;;;;3.28;2.97;;;8.00;63.60;;;;;;5080955;28;20431;-82
2024/01/24 12:24:42;;;;;;;3.55;3.25;;;8.00;63.60;;;;;;5081905;28;20439;-89
2024/01/24 12:27:08;;;;;;;3.80;3.20;;;8.00;63.60;;;;;;5084717;28;20542;-86
2024/01/24 12:29:34;;;;;;;3.22;2.92;;;7.90;63.60;;;;;;5084706;28;20017;-85
2024/01/24 12:32:05;;;;;;;3.85;3.30;;;7.90;64.20;;;;;;5078456;28;20044;-86
2024/01/24 12:34:31;;;;;;;4.00;3.28;;;7.90;63.60;;;;;;5078150;28;20415;-83
2024/01/24 12:37:00;;;;;;;3.63;3.08;;;7.90;63.60;;;;;;5077550;28;20021;-82
2024/01/24 12:39:34;;;;;;;3.78;3.10;;;7.90;63.60;;;;;;5076039;28;20024;-88
2024/01/24 12:42:00;;;;;;;3.58;2.92;;;7.90;63.60;;;;;;5076345;28;20016;-88
2024/01/24 12:44:26;;;;;;;3.38;3.08;;;7.90;63.60;;;;;;5079539;28;20020;-88
2024/01/24 12:47:00;;;;;;;3.80;3.05;;;7.90;63.60;;;;;;5080544;28;20031;-87
2024/01/24 12:49:39;;;;;;;3.72;3.15;;;7.90;63.60;;;;;;5085992;28;20115;-85
2024/01/24 12:52:05;;;;;;;4.65;3.28;;;7.90;63.70;;;;;;5075678;28;20027;-82
2024/01/24 12:54:31;;;;;;;3.72;3.25;;;7.90;63.70;;;;;;5085950;28;20169;-88